Time,TemperatureF,DewpointF,PressureIn,WindDirection,WindDirectionDegrees,WindSpeedMPH,WindSpeedGustMPH,Humidity,HourlyPrecipIn,Conditions,Clouds,dailyrainin,SoftwareType,DateUTC
2013-01-09 00:06:00,34.4,33.0,30.38,SE,140,0.0,-999.0,94,-99.99,,,0.00,weatherlink.com 1.10,2013-01-09 05:06:00,
2013-01-09 00:20:00,33.8,32.0,30.38,SE,140,0.0,-999.0,94,-99.99,,,0.00,weatherlink.com 1.10,2013-01-09 05:20:00,
2013-01-09 00:36:00,33.7,33.0,30.38,SE,140,0.0,-999.0,95,-99.99,,,0.00,weatherlink.com 1.10,2013-01-09 05:36:00,
2013-01-09 00:50:00,33.4,32.0,30.39,SE,140,0.0,-999.0,95,-99.99,,,0.00,weatherlink.com 1.10,2013-01-09 05:50:00,
2013-01-09 01:06:00,32.7,32.0,30.39,SE,140,0.0,-999.0,95,-99.99,,,0.00,weatherlink.com 1.10,2013-01-09 06:06:00,
2013-01-09 01:21:00,32.4,31.0,30.38,SE,140,0.0,-999.0,95,-99.99,,,0.00,weatherlink.com 1.10,2013-01-09 06:21:00,
2013-01-09 01:36:00,31.0,30.0,30.37,SE,140,0.0,-999.0,95,-99.99,,,0.00,weatherlink.com 1.10,2013-01-09 06:36:00,
2013-01-09 01:51:00,32.2,31.0,30.38,SE,140,0.0,-999.0,95,-99.99,,,0.00,weatherlink.com 1.10,2013-01-09 06:51:00,
2013-01-09 02:06:00,31.6,31.0,30.38,SE,140,0.0,-999.0,96,-99.99,,,0.00,weatherlink.com 1.10,2013-01-09 07:06:00,
2013-01-09 02:21:00,31.5,30.0,30.37,SE,140,0.0,-999.0,95,-99.99,,,0.00,weatherlink.com 1.10,2013-01-09 07:21:00,
2013-01-09 02:36:00,31.5,31.0,30.38,SE,140,0.0,-999.0,96,-99.99,,,0.00,weatherlink.com 1.10,2013-01-09 07:36:00,
2013-01-09 02:51:00,31.5,31.0,30.38,SE,140,0.0,-999.0,96,-99.99,,,0.00,weatherlink.com 1.10,2013-01-09 07:51:00,
2013-01-09 03:06:00,31.8,31.0,30.37,SE,140,0.0,-999.0,96,-99.99,,,0.00,weatherlink.com 1.10,2013-01-09 08:06:00,
2013-01-09 03:21:00,31.5,30.0,30.38,SE,140,0.0,-999.0,95,-99.99,,,0.00,weatherlink.com 1.10,2013-01-09 08:21:00,
2013-01-09 03:36:00,31.5,31.0,30.38,SE,140,0.0,-999.0,96,-99.99,,,0.00,weatherlink.com 1.10,2013-01-09 08:36:00,
2013-01-09 03:51:00,30.1,29.0,30.37,SE,140,0.0,-999.0,95,-99.99,,,0.00,weatherlink.com 1.10,2013-01-09 08:51:00,
2013-01-09 04:06:00,30.4,29.0,30.36,SE,140,0.0,-999.0,96,-99.99,,,0.00,weatherlink.com 1.10,2013-01-09 09:06:00,
2013-01-09 04:21:00,30.4,29.0,30.36,SE,140,0.0,-999.0,96,-99.99,,,0.00,weatherlink.com 1.10,2013-01-09 09:21:00,
2013-01-09 04:51:00,30.7,30.0,30.36,SE,140,0.0,-999.0,96,-99.99,,,0.00,weatherlink.com 1.10,2013-01-09 09:51:00,
2013-01-09 05:06:00,31.5,31.0,30.36,SE,140,0.0,-999.0,97,-99.99,,,0.00,weatherlink.com 1.10,2013-01-09 10:06:00,
2013-01-09 05:21:00,31.5,31.0,30.36,SE,140,0.0,-999.0,96,-99.99,,,0.00,weatherlink.com 1.10,2013-01-09 10:21:00,
2013-01-09 05:36:00,31.5,31.0,30.35,SE,140,0.0,-999.0,97,-99.99,,,0.00,weatherlink.com 1.10,2013-01-09 10:36:00,
2013-01-09 05:51:00,30.9,30.0,30.36,SE,140,0.0,-999.0,96,-99.99,,,0.00,weatherlink.com 1.10,2013-01-09 10:51:00,
2013-01-09 06:06:00,30.7,30.0,30.35,SE,140,0.0,-999.0,96,-99.99,,,0.00,weatherlink.com 1.10,2013-01-09 11:06:00,
2013-01-09 06:21:00,30.9,30.0,30.36,SE,140,0.0,-999.0,96,-99.99,,,0.00,weatherlink.com 1.10,2013-01-09 11:21:00,
2013-01-09 06:36:00,31.0,30.0,30.36,SE,140,0.0,-999.0,97,-99.99,,,0.00,weatherlink.com 1.10,2013-01-09 11:36:00,
2013-01-09 06:51:00,30.7,30.0,30.36,SE,140,0.0,-999.0,96,-99.99,,,0.00,weatherlink.com 1.10,2013-01-09 11:51:00,
2013-01-09 07:06:00,31.8,31.0,30.36,SE,140,0.0,-999.0,97,-99.99,,,0.00,weatherlink.com 1.10,2013-01-09 12:06:00,
2013-01-09 07:21:00,31.9,31.0,30.36,SE,140,0.0,-999.0,97,-99.99,,,0.00,weatherlink.com 1.10,2013-01-09 12:21:00,
2013-01-09 07:36:00,31.9,31.0,30.37,SE,140,0.0,-999.0,97,-99.99,,,0.00,weatherlink.com 1.10,2013-01-09 12:36:00,
2013-01-09 07:51:00,32.5,32.0,30.37,SE,140,0.0,-999.0,97,-99.99,,,0.00,weatherlink.com 1.10,2013-01-09 12:51:00,
2013-01-09 08:06:00,32.9,32.0,30.38,SE,140,0.0,-999.0,97,-99.99,,,0.00,weatherlink.com 1.10,2013-01-09 13:06:00,
2013-01-09 08:21:00,34.1,33.0,30.38,SE,140,0.0,-999.0,97,-99.99,,,0.00,weatherlink.com 1.10,2013-01-09 13:21:00,
2013-01-09 08:36:00,35.9,35.0,30.39,SE,140,0.0,-999.0,97,-99.99,,,0.00,weatherlink.com 1.10,2013-01-09 13:36:00,
2013-01-09 08:51:00,39.9,39.0,30.38,SE,140,0.0,-999.0,95,-99.99,,,0.00,weatherlink.com 1.10,2013-01-09 13:51:00,
2013-01-09 09:06:00,41.8,38.0,30.37,SE,140,0.0,-999.0,86,-99.99,,,0.00,weatherlink.com 1.10,2013-01-09 14:06:00,
2013-01-09 09:21:00,42.8,38.0,30.36,SE,140,0.0,-999.0,82,-99.99,,,0.00,weatherlink.com 1.10,2013-01-09 14:21:00,
2013-01-09 09:36:00,43.6,38.0,30.36,SSE,153,3.0,-999.0,79,-99.99,,,0.00,weatherlink.com 1.10,2013-01-09 14:36:00,
2013-01-09 09:51:00,44.5,38.0,30.36,SSW,203,0.0,-999.0,77,-99.99,,,0.00,weatherlink.com 1.10,2013-01-09 14:51:00,
2013-01-09 10:06:00,45.8,38.0,30.37,SW,229,1.0,-999.0,75,-99.99,,,0.00,weatherlink.com 1.10,2013-01-09 15:06:00,
2013-01-09 10:21:00,45.8,38.0,30.38,SSW,205,4.0,-999.0,74,-99.99,,,0.00,weatherlink.com 1.10,2013-01-09 15:21:00,
2013-01-09 10:36:00,46.5,38.0,30.35,South,174,4.0,-999.0,73,-99.99,,,0.00,weatherlink.com 1.10,2013-01-09 15:36:00,
2013-01-09 10:51:00,47.6,39.0,30.35,SSW,205,0.0,-999.0,73,-99.99,,,0.00,weatherlink.com 1.10,2013-01-09 15:51:00,
2013-01-09 11:06:00,48.3,39.0,30.35,SW,219,0.0,-999.0,71,-99.99,,,0.00,weatherlink.com 1.10,2013-01-09 16:06:00,
2013-01-09 11:21:00,48.9,39.0,30.34,WSW,250,1.0,-999.0,70,-99.99,,,0.00,weatherlink.com 1.10,2013-01-09 16:21:00,
2013-01-09 11:36:00,49.8,40.0,30.33,WSW,243,3.0,-999.0,69,-99.99,,,0.00,weatherlink.com 1.10,2013-01-09 16:36:00,
2013-01-09 11:51:00,49.8,40.0,30.32,SW,224,2.0,-999.0,69,-99.99,,,0.00,weatherlink.com 1.10,2013-01-09 16:51:00,
2013-01-09 12:06:00,50.2,40.0,30.31,SW,227,3.0,-999.0,68,-99.99,,,0.00,weatherlink.com 1.10,2013-01-09 17:06:00,
2013-01-09 12:21:00,50.2,40.0,30.30,WSW,255,0.0,-999.0,69,-99.99,,,0.00,weatherlink.com 1.10,2013-01-09 17:21:00,
2013-01-09 12:36:00,51.3,41.0,30.30,WSW,240,2.0,-999.0,68,-99.99,,,0.00,weatherlink.com 1.10,2013-01-09 17:36:00,
2013-01-09 12:51:00,51.7,41.0,30.30,West,278,0.0,-999.0,67,-99.99,,,0.00,weatherlink.com 1.10,2013-01-09 17:51:00,
2013-01-09 13:06:00,52.3,41.0,30.29,West,264,0.0,-999.0,66,-99.99,,,0.00,weatherlink.com 1.10,2013-01-09 18:06:00,
2013-01-09 13:21:00,52.8,42.0,30.30,WSW,249,0.0,-999.0,66,-99.99,,,0.00,weatherlink.com 1.10,2013-01-09 18:21:00,
2013-01-09 13:36:00,52.8,41.0,30.30,WNW,290,2.0,-999.0,65,-99.99,,,0.00,weatherlink.com 1.10,2013-01-09 18:36:00,
2013-01-09 13:51:00,52.6,41.0,30.29,NNW,345,0.0,-999.0,65,-99.99,,,0.00,weatherlink.com 1.10,2013-01-09 18:51:00,
2013-01-09 14:06:00,52.3,41.0,30.30,NNW,335,1.0,-999.0,66,-99.99,,,0.00,weatherlink.com 1.10,2013-01-09 19:06:00,
2013-01-09 14:21:00,51.9,41.0,30.30,NW,305,0.0,-999.0,66,-99.99,,,0.00,weatherlink.com 1.10,2013-01-09 19:21:00,
2013-01-09 14:36:00,51.6,41.0,30.29,NW,326,2.0,-999.0,67,-99.99,,,0.00,weatherlink.com 1.10,2013-01-09 19:36:00,
2013-01-09 14:51:00,51.6,41.0,30.30,NW,323,0.0,-999.0,67,-99.99,,,0.00,weatherlink.com 1.10,2013-01-09 19:51:00,
2013-01-09 15:06:00,51.4,42.0,30.27,NW,323,0.0,-999.0,69,-99.99,,,0.00,weatherlink.com 1.10,2013-01-09 20:06:00,
2013-01-09 15:21:00,50.7,43.0,30.25,NW,323,0.0,-999.0,76,-99.99,,,0.00,weatherlink.com 1.10,2013-01-09 20:21:00,
2013-01-09 15:36:00,50.2,44.0,30.25,SSE,148,0.0,-999.0,79,-99.99,,,0.00,weatherlink.com 1.10,2013-01-09 20:36:00,
2013-01-09 15:51:00,49.5,44.0,30.24,SSE,148,0.0,-999.0,81,-99.99,,,0.00,weatherlink.com 1.10,2013-01-09 20:51:00,
2013-01-09 16:06:00,49.5,44.0,30.24,SSE,148,0.0,-999.0,81,-99.99,,,0.00,weatherlink.com 1.10,2013-01-09 21:06:00,
2013-01-09 16:21:00,49.6,44.0,30.24,SSE,148,0.0,-999.0,81,-99.99,,,0.00,weatherlink.com 1.10,2013-01-09 21:21:00,
2013-01-09 16:36:00,49.8,44.0,30.24,SE,141,1.0,-999.0,80,-99.99,,,0.00,weatherlink.com 1.10,2013-01-09 21:36:00,
2013-01-09 16:51:00,49.1,43.0,30.23,SSE,156,0.0,-999.0,80,-99.99,,,0.00,weatherlink.com 1.10,2013-01-09 21:51:00,
2013-01-09 17:06:00,48.8,43.0,30.23,SSE,156,0.0,-999.0,79,-99.99,,,0.00,weatherlink.com 1.10,2013-01-09 22:06:00,
2013-01-09 17:21:00,48.3,42.0,30.23,SSE,156,0.0,-999.0,79,-99.99,,,0.00,weatherlink.com 1.10,2013-01-09 22:21:00,
2013-01-09 17:36:00,47.1,42.0,30.24,SSE,156,0.0,-999.0,81,-99.99,,,0.00,weatherlink.com 1.10,2013-01-09 22:36:00,
2013-01-09 17:51:00,46.5,42.0,30.24,SSE,156,0.0,-999.0,83,-99.99,,,0.00,weatherlink.com 1.10,2013-01-09 22:51:00,
2013-01-09 18:06:00,45.7,42.0,30.24,SSE,156,0.0,-999.0,86,-99.99,,,0.00,weatherlink.com 1.10,2013-01-09 23:06:00,
2013-01-09 18:21:00,45.2,42.0,30.24,SSE,156,0.0,-999.0,88,-99.99,,,0.00,weatherlink.com 1.10,2013-01-09 23:21:00,
2013-01-09 18:36:00,44.3,41.0,30.24,SSE,156,0.0,-999.0,89,-99.99,,,0.00,weatherlink.com 1.10,2013-01-09 23:36:00,
2013-01-09 18:51:00,43.6,41.0,30.26,SSE,156,0.0,-999.0,91,-99.99,,,0.00,weatherlink.com 1.10,2013-01-09 23:51:00,
2013-01-09 19:06:00,42.9,41.0,30.27,SSE,156,0.0,-999.0,92,-99.99,,,0.00,weatherlink.com 1.10,2013-01-10 00:06:00,
2013-01-09 19:21:00,43.1,41.0,30.29,SSE,156,0.0,-999.0,93,-99.99,,,0.00,weatherlink.com 1.10,2013-01-10 00:21:00,
2013-01-09 19:36:00,44.6,43.0,30.30,NW,323,4.0,-999.0,94,-99.99,,,0.00,weatherlink.com 1.10,2013-01-10 00:36:00,
2013-01-09 19:51:00,45.7,43.0,30.32,North,356,5.0,-999.0,91,-99.99,,,0.00,weatherlink.com 1.10,2013-01-10 00:51:00,
2013-01-09 20:06:00,46.1,43.0,30.32,West,269,3.0,-999.0,88,-99.99,,,0.00,weatherlink.com 1.10,2013-01-10 01:06:00,
2013-01-09 20:21:00,46.7,43.0,30.31,NW,305,0.0,-999.0,86,-99.99,,,0.00,weatherlink.com 1.10,2013-01-10 01:21:00,
2013-01-09 20:36:00,46.2,42.0,30.31,NW,304,2.0,-999.0,84,-99.99,,,0.00,weatherlink.com 1.10,2013-01-10 01:36:00,
2013-01-09 20:51:00,45.4,41.0,30.32,NW,304,0.0,-999.0,84,-99.99,,,0.00,weatherlink.com 1.10,2013-01-10 01:51:00,
2013-01-09 21:06:00,44.6,41.0,30.33,NW,304,0.0,-999.0,86,-99.99,,,0.00,weatherlink.com 1.10,2013-01-10 02:06:00,
2013-01-09 21:21:00,43.6,40.0,30.33,NW,304,0.0,-999.0,88,-99.99,,,0.00,weatherlink.com 1.10,2013-01-10 02:21:00,
2013-01-09 21:36:00,44.8,42.0,30.33,NW,304,0.0,-999.0,89,-99.99,,,0.00,weatherlink.com 1.10,2013-01-10 02:36:00,
2013-01-09 21:51:00,46.2,41.0,30.33,WNW,295,0.0,-999.0,83,-99.99,,,0.00,weatherlink.com 1.10,2013-01-10 02:51:00,
2013-01-09 22:06:00,47.3,38.0,30.34,NW,321,6.0,-999.0,71,-99.99,,,0.00,weatherlink.com 1.10,2013-01-10 03:06:00,
2013-01-09 22:21:00,49.6,34.0,30.34,WNW,302,3.0,-999.0,56,-99.99,,,0.00,weatherlink.com 1.10,2013-01-10 03:21:00,
2013-01-09 22:36:00,51.6,33.0,30.34,NNW,333,10.0,-999.0,49,-99.99,,,0.00,weatherlink.com 1.10,2013-01-10 03:36:00,
2013-01-09 22:51:00,52.3,32.0,30.34,NNW,340,4.0,-999.0,46,-99.99,,,0.00,weatherlink.com 1.10,2013-01-10 03:51:00,
2013-01-09 23:06:00,52.3,32.0,30.35,WNW,291,3.0,-999.0,46,-99.99,,,0.00,weatherlink.com 1.10,2013-01-10 04:06:00,
2013-01-09 23:21:00,52.3,31.0,30.36,NW,313,4.0,-999.0,45,-99.99,,,0.00,weatherlink.com 1.10,2013-01-10 04:21:00,
2013-01-09 23:36:00,52.5,32.0,30.37,NW,321,7.0,-999.0,45,-99.99,,,0.00,weatherlink.com 1.10,2013-01-10 04:36:00,
2013-01-09 23:51:00,52.3,31.0,30.37,West,276,2.0,-999.0,45,-99.99,,,0.00,weatherlink.com 1.10,2013-01-10 04:51:00,